createdAt,value
2019-02-03T00:01:14.792Z,100315.03
2019-02-03T00:03:44.400Z,100318.31
2019-02-03T00:06:13.938Z,100327.56
2019-02-03T00:08:43.552Z,100333.47
2019-02-03T00:11:13.008Z,100331.11
2019-02-03T00:13:42.638Z,100330.66
2019-02-03T00:16:11.815Z,100334.41
2019-02-03T00:18:41.081Z,100350.52
2019-02-03T00:21:10.251Z,100362.98
2019-02-03T00:23:39.803Z,100361.38
2019-02-03T00:26:09.336Z,100374.20
2019-02-03T00:28:38.680Z,100370.69
2019-02-03T00:31:07.815Z,100371.72
2019-02-03T00:33:37.648Z,100378.78
2019-02-03T00:36:06.944Z,100377.34
2019-02-03T00:38:36.376Z,100380.51
2019-02-03T00:41:05.861Z,100369.65
2019-02-03T00:43:35.382Z,100376.75
2019-02-03T00:46:04.844Z,100372.02
2019-02-03T00:48:34.042Z,100376.37
2019-02-03T00:51:03.606Z,100378.98
2019-02-03T00:53:33.054Z,100390.36
2019-02-03T00:56:02.614Z,100386.03
2019-02-03T00:58:32.064Z,100387.34
2019-02-03T01:01:01.259Z,100385.23
2019-02-03T01:03:30.479Z,100390.50
2019-02-03T01:06:00.036Z,100389.14
2019-02-03T01:08:29.264Z,100391.20
2019-02-03T01:10:58.493Z,100386.75
2019-02-03T01:13:27.728Z,100391.28
2019-02-03T01:15:56.998Z,100392.24
2019-02-03T01:18:26.559Z,100392.67
2019-02-03T01:20:55.821Z,100393.08
2019-02-03T01:23:25.200Z,100398.63
2019-02-03T01:25:54.635Z,100402.70
2019-02-03T01:28:24.456Z,100401.86
2019-02-03T01:30:53.641Z,100400.56
2019-02-03T01:33:22.886Z,100403.27
2019-02-03T01:35:52.072Z,100405.76
2019-02-03T01:38:21.669Z,100409.73
2019-02-03T01:40:50.807Z,100411.16
2019-02-03T01:43:20.341Z,100408.39
2019-02-03T01:45:49.860Z,100411.26
2019-02-03T01:48:19.375Z,100407.55
2019-02-03T01:50:48.860Z,100419.70
2019-02-03T01:53:18.157Z,100430.59
2019-02-03T01:55:47.993Z,100433.61
2019-02-03T01:58:17.224Z,100440.77
2019-02-03T02:00:46.839Z,100437.42
2019-02-03T02:03:16.079Z,100437.55
2019-02-03T02:05:45.241Z,100435.78
2019-02-03T02:08:14.533Z,100437.29
2019-02-03T02:10:43.770Z,100443.59
2019-02-03T02:13:13.245Z,100449.33
2019-02-03T02:15:42.775Z,100447.77
2019-02-03T02:18:12.326Z,100444.89
2019-02-03T02:20:41.453Z,100454.46
2019-02-03T02:23:11.002Z,100459.29
2019-02-03T02:25:40.512Z,100459.36
2019-02-03T02:28:09.708Z,100464.55
2019-02-03T02:30:38.936Z,100468.45
2019-02-03T02:33:08.094Z,100477.98
2019-02-03T02:35:37.407Z,100483.28
2019-02-03T02:38:07.529Z,100483.98
2019-02-03T02:40:36.934Z,100489.08
2019-02-03T02:43:06.438Z,100491.55
2019-02-03T02:45:35.725Z,100502.06
2019-02-03T02:48:04.872Z,100512.63
2019-02-03T02:50:40.214Z,100513.30
2019-02-03T02:53:09.377Z,100520.97
2019-02-03T02:55:38.824Z,100527.87
2019-02-03T02:58:08.025Z,100528.00
2019-02-03T03:00:37.465Z,100529.43
2019-02-03T03:03:07.109Z,100531.40
2019-02-03T03:05:36.294Z,100519.94
2019-02-03T03:08:18.256Z,100519.03
2019-02-03T03:10:37.373Z,100519.40
2019-02-03T03:13:06.647Z,100527.00
2019-02-03T03:15:36.138Z,100531.20
2019-02-03T03:18:05.460Z,100541.47
2019-02-03T03:20:35.447Z,100541.84
2019-02-03T03:23:05.003Z,100540.47
2019-02-03T03:25:34.547Z,100540.20
2019-02-03T03:28:03.833Z,100541.92
2019-02-03T03:30:33.350Z,100544.69
2019-02-03T03:33:03.011Z,100545.98
2019-02-03T03:35:34.316Z,100546.53
2019-02-03T03:38:03.479Z,100550.75
2019-02-03T03:40:32.684Z,100554.00
2019-02-03T03:43:01.981Z,100559.48
2019-02-03T03:45:31.137Z,100555.73
2019-02-03T03:48:00.614Z,100564.36
2019-02-03T03:50:30.729Z,100569.57
2019-02-03T03:53:00.045Z,100572.06
2019-02-03T03:55:29.769Z,100572.57
2019-02-03T03:57:59.298Z,100571.02
2019-02-03T04:00:28.658Z,100574.46
2019-02-03T04:02:57.856Z,100576.22
2019-02-03T04:05:27.348Z,100575.39
2019-02-03T04:07:56.995Z,100572.71
2019-02-03T04:10:26.156Z,100572.39
2019-02-03T04:12:55.750Z,100587.13
2019-02-03T04:15:26.219Z,100584.48
2019-02-03T04:17:55.403Z,100583.56
2019-02-03T04:20:26.700Z,100591.82
2019-02-03T04:22:55.928Z,100593.74
2019-02-03T04:25:25.094Z,100585.83
2019-02-03T04:27:54.387Z,100589.98
2019-02-03T04:30:24.453Z,100592.92
2019-02-03T04:32:53.658Z,100589.16
2019-02-03T04:35:23.240Z,100596.15
2019-02-03T04:37:52.444Z,100596.36
2019-02-03T04:40:22.573Z,100598.62
2019-02-03T04:42:51.831Z,100601.73
2019-02-03T04:45:22.854Z,100616.80
2019-02-03T04:47:52.109Z,100615.38
2019-02-03T04:50:21.950Z,100618.56
2019-02-03T04:52:51.198Z,100624.80
2019-02-03T04:55:21.012Z,100631.91
2019-02-03T04:57:50.537Z,100623.63
2019-02-03T05:00:21.984Z,100626.47
2019-02-03T05:02:51.760Z,100637.56
2019-02-03T05:05:21.056Z,100627.52
2019-02-03T05:07:50.639Z,100639.20
2019-02-03T05:10:20.097Z,100640.04
2019-02-03T05:12:49.382Z,100641.70
2019-02-03T05:15:23.642Z,100638.66
2019-02-03T05:17:52.883Z,100651.75
2019-02-03T05:20:24.482Z,100655.40
2019-02-03T05:22:54.007Z,100667.30
2019-02-03T05:25:23.500Z,100681.94
2019-02-03T05:27:52.751Z,100688.08
2019-02-03T05:30:24.197Z,100705.65
2019-02-03T05:32:53.334Z,100712.72
2019-02-03T05:35:23.313Z,100724.14
2019-02-03T05:37:52.532Z,100735.48
2019-02-03T05:40:22.073Z,100736.08
2019-02-03T05:42:51.584Z,100741.59
2019-02-03T05:45:21.514Z,100750.70
2019-02-03T05:47:50.751Z,100757.06
2019-02-03T05:50:20.697Z,100764.80
2019-02-03T05:52:50.356Z,100772.45
2019-02-03T05:55:19.660Z,100774.66
2019-02-03T05:57:49.095Z,100783.22
2019-02-03T06:00:28.557Z,100805.28
2019-02-03T06:02:57.756Z,100813.98
2019-02-03T06:05:26.908Z,100820.72
2019-02-03T06:07:56.148Z,100815.05
2019-02-03T06:10:25.783Z,100827.34
2019-02-03T06:12:55.431Z,100827.34
2019-02-03T06:15:25.011Z,100824.03
2019-02-03T06:17:54.215Z,100837.20
2019-02-03T06:20:23.518Z,100842.72
2019-02-03T06:22:53.571Z,100849.63
2019-02-03T06:25:23.159Z,100852.94
2019-02-03T06:27:53.172Z,100859.38
2019-02-03T06:31:18.500Z,100854.88
2019-02-03T06:33:48.945Z,100863.80
2019-02-03T06:36:18.503Z,100868.19
2019-02-03T06:38:47.867Z,100864.07
2019-02-03T06:41:17.164Z,100868.60
2019-02-03T06:43:46.887Z,100875.78
2019-02-03T06:46:37.796Z,100884.84
2019-02-03T06:49:28.814Z,100891.91
2019-02-03T06:51:58.376Z,100897.77
2019-02-03T06:54:27.546Z,100892.66
2019-02-03T06:56:56.798Z,100898.48
2019-02-03T06:59:25.999Z,100898.10
2019-02-03T07:01:55.434Z,100903.68
2019-02-03T07:06:59.904Z,100908.80
2019-02-03T07:09:29.216Z,100921.72
2019-02-03T07:11:58.453Z,100925.59
2019-02-03T07:14:27.931Z,100929.98
2019-02-03T07:16:57.321Z,100926.38
2019-02-03T07:19:26.583Z,100928.98
2019-02-03T07:21:55.771Z,100927.17
2019-02-03T07:24:25.485Z,100924.80
2019-02-03T07:26:55.009Z,100926.77
2019-02-03T07:29:24.197Z,100931.79
2019-02-03T07:31:53.710Z,100940.97
2019-02-03T07:34:23.259Z,100941.64
2019-02-03T07:36:52.806Z,100936.56
2019-02-03T07:39:22.320Z,100941.48
2019-02-03T07:41:51.616Z,100935.41
2019-02-03T07:44:21.099Z,100940.23
2019-02-03T07:46:50.301Z,100939.07
2019-02-03T07:49:19.510Z,100942.33
2019-02-03T07:51:49.072Z,100943.84
2019-02-03T07:54:18.338Z,100946.27
2019-02-03T07:56:47.480Z,100946.81
2019-02-03T07:59:16.947Z,100945.87
2019-02-03T08:01:46.197Z,100947.56
2019-02-03T08:04:15.646Z,100948.90
2019-02-03T08:06:44.798Z,100957.80
2019-02-03T08:09:14.319Z,100955.28
2019-02-03T08:11:43.528Z,100955.44
2019-02-03T08:14:12.948Z,100951.63
2019-02-03T08:16:42.277Z,100958.15
2019-02-03T08:19:11.470Z,100955.78
2019-02-03T08:21:40.744Z,100967.08
2019-02-03T08:24:09.918Z,100964.62
2019-02-03T08:26:39.621Z,100965.19
2019-02-03T08:29:08.824Z,100970.90
2019-02-03T08:31:38.382Z,100976.70
2019-02-03T08:34:07.641Z,100979.09
2019-02-03T08:36:36.919Z,100984.19
2019-02-03T08:39:08.927Z,100983.61
2019-02-03T08:41:38.123Z,100990.13
2019-02-03T08:44:07.736Z,101001.72
2019-02-03T08:46:36.914Z,101000.53
2019-02-03T08:49:06.486Z,101000.41
2019-02-03T08:51:36.487Z,100999.83
2019-02-03T08:54:06.573Z,101002.80
2019-02-03T08:56:35.726Z,101002.70
2019-02-03T08:59:05.381Z,101004.75
2019-02-03T09:01:35.352Z,101003.67
2019-02-03T09:04:04.708Z,101013.60
2019-02-03T09:06:33.934Z,101015.12
2019-02-03T09:09:04.152Z,101016.32
2019-02-03T09:11:33.668Z,101015.98
2019-02-03T09:14:03.255Z,101023.55
2019-02-03T09:16:33.094Z,101021.64
2019-02-03T09:19:02.904Z,101017.04
2019-02-03T09:21:32.302Z,101021.55
2019-02-03T09:24:01.452Z,101021.31
2019-02-03T09:26:30.898Z,101030.77
2019-02-03T09:29:00.846Z,101037.16
2019-02-03T09:31:30.057Z,101039.27
2019-02-03T09:33:59.249Z,101042.47
2019-02-03T09:36:28.472Z,101047.56
2019-02-03T09:38:57.649Z,101047.06
2019-02-03T09:41:26.875Z,101053.72
2019-02-03T09:43:56.459Z,101059.14
2019-02-03T09:46:25.764Z,101060.31
2019-02-03T09:48:55.320Z,101065.66
2019-02-03T09:51:24.485Z,101058.78
2019-02-03T09:53:54.073Z,101061.97
2019-02-03T09:56:23.690Z,101062.91
2019-02-03T09:58:53.395Z,101066.47
2019-02-03T10:01:22.547Z,101072.23
2019-02-03T10:03:52.001Z,101069.74
2019-02-03T10:06:21.565Z,101072.22
2019-02-03T10:08:50.749Z,101065.91
2019-02-03T10:11:22.790Z,101070.03
2019-02-03T10:13:50.882Z,101069.88
2019-02-03T10:16:20.079Z,101072.02
2019-02-03T10:18:49.347Z,101075.94
2019-02-03T10:21:18.515Z,101077.42
2019-02-03T10:23:47.703Z,101074.42
2019-02-03T10:26:16.967Z,101075.72
2019-02-03T10:28:46.866Z,101076.94
2019-02-03T10:31:16.413Z,101083.83
2019-02-03T10:33:45.564Z,101086.75
2019-02-03T10:36:14.769Z,101089.70
2019-02-03T10:38:44.000Z,101090.87
2019-02-03T10:41:23.757Z,101092.73
2019-02-03T10:43:44.396Z,101095.63
2019-02-03T10:46:13.639Z,101100.82
2019-02-03T10:48:42.835Z,101106.59
2019-02-03T10:51:12.000Z,101103.61
2019-02-03T10:53:41.905Z,101102.25
2019-02-03T10:56:11.060Z,101107.67
2019-02-03T10:58:40.232Z,101110.12
2019-02-03T11:01:09.385Z,101112.22
2019-02-03T11:03:38.550Z,101115.77
2019-02-03T11:06:08.079Z,101116.94
2019-02-03T11:08:37.395Z,101116.38
2019-02-03T11:11:06.836Z,101124.78
2019-02-03T11:13:37.720Z,101125.52
2019-02-03T11:16:07.012Z,101130.66
2019-02-03T11:18:36.186Z,101126.92
2019-02-03T11:21:05.320Z,101128.53
2019-02-03T11:23:34.690Z,101133.66
2019-02-03T11:26:03.869Z,101139.31
2019-02-03T11:28:33.031Z,101143.60
2019-02-03T11:31:02.488Z,101147.45
2019-02-03T11:33:31.675Z,101153.50
2019-02-03T11:36:00.800Z,101158.33
2019-02-03T11:38:30.326Z,101163.42
2019-02-03T11:41:00.129Z,101156.16
2019-02-03T11:43:30.291Z,101165.34
2019-02-03T11:46:06.746Z,101169.14
2019-02-03T11:48:36.977Z,101160.87
2019-02-03T11:51:07.708Z,101168.17
2019-02-03T11:53:37.680Z,101178.66
2019-02-03T11:56:07.147Z,101173.63
2019-02-03T11:58:36.375Z,101181.81
2019-02-03T12:01:07.040Z,101185.87
2019-02-03T12:03:36.229Z,101181.16
2019-02-03T12:06:05.903Z,101185.70
2019-02-03T12:08:35.065Z,101184.49
2019-02-03T12:11:04.808Z,101174.38
2019-02-03T12:13:34.143Z,101183.12
2019-02-03T12:16:03.853Z,101189.70
2019-02-03T12:18:33.012Z,101181.74
2019-02-03T12:21:02.671Z,101195.17
2019-02-03T12:23:32.966Z,101189.16
2019-02-03T12:26:02.150Z,101198.16
2019-02-03T12:28:31.840Z,101199.86
2019-02-03T12:31:00.965Z,101200.72
2019-02-03T12:33:30.106Z,101204.51
2019-02-03T12:35:59.273Z,101206.46
2019-02-03T12:38:28.647Z,101203.73
2019-02-03T12:40:57.809Z,101212.31
2019-02-03T12:43:27.230Z,101211.50
2019-02-03T12:45:56.760Z,101215.28
2019-02-03T12:48:25.978Z,101221.26
2019-02-03T12:50:55.415Z,101219.08
2019-02-03T12:53:24.540Z,101215.62
2019-02-03T12:55:53.763Z,101213.91
2019-02-03T12:58:22.950Z,101220.47
2019-02-03T13:00:52.757Z,101215.54
2019-02-03T13:03:25.160Z,101217.19
2019-02-03T13:05:52.821Z,101221.70
2019-02-03T13:08:22.023Z,101226.22
2019-02-03T13:10:51.547Z,101223.22
2019-02-03T13:13:21.123Z,101226.58
2019-02-03T13:15:52.203Z,101239.04
2019-02-03T13:18:21.711Z,101245.46
2019-02-03T13:20:50.874Z,101245.27
2019-02-03T13:23:20.055Z,101253.17
2019-02-03T13:25:49.462Z,101253.01
2019-02-03T13:28:18.872Z,101256.89
2019-02-03T13:30:49.917Z,101266.61
2019-02-03T13:33:21.843Z,101264.52
2019-02-03T13:35:50.402Z,101265.83
2019-02-03T13:38:20.105Z,101272.74
2019-02-03T13:40:49.678Z,101277.20
2019-02-03T13:43:18.946Z,101270.36
2019-02-03T13:45:48.495Z,101278.61
2019-02-03T13:48:17.625Z,101281.17
2019-02-03T13:50:46.903Z,101276.36
2019-02-03T13:53:16.492Z,101279.45
2019-02-03T13:55:45.714Z,101284.87
2019-02-03T13:58:15.217Z,101282.13
2019-02-03T14:00:45.793Z,101289.42
2019-02-03T14:03:15.173Z,101289.02
2019-02-03T14:05:44.396Z,101294.25
2019-02-03T14:08:13.949Z,101304.94
2019-02-03T14:10:44.943Z,101303.55
2019-02-03T14:13:14.621Z,101303.63
2019-02-03T14:15:44.157Z,101305.02
2019-02-03T14:18:13.463Z,101302.47
2019-02-03T14:20:43.115Z,101308.31
2019-02-03T14:23:12.734Z,101305.67
2019-02-03T14:25:42.216Z,101309.70
2019-02-03T14:28:11.430Z,101314.33
2019-02-03T14:30:45.841Z,101321.84
2019-02-03T14:33:15.570Z,101324.02
2019-02-03T14:35:45.142Z,101338.66
2019-02-03T14:38:14.272Z,101335.89
2019-02-03T14:40:43.573Z,101351.08
2019-02-03T14:43:12.734Z,101353.81
2019-02-03T14:45:42.083Z,101356.44
2019-02-03T14:48:11.254Z,101355.67
2019-02-03T14:50:40.868Z,101359.01
2019-02-03T14:53:12.826Z,101362.69
2019-02-03T14:55:43.630Z,101364.89
2019-02-03T14:58:14.958Z,101365.24
2019-02-03T15:00:46.709Z,101370.84
2019-02-03T15:03:20.932Z,101369.08
2019-02-03T15:05:50.366Z,101369.02
2019-02-03T15:08:19.654Z,101377.14
2019-02-03T15:10:49.173Z,101375.59
2019-02-03T15:13:18.815Z,101381.82
2019-02-03T15:15:48.001Z,101389.70
2019-02-03T15:18:17.190Z,101393.63
2019-02-03T15:20:46.917Z,101393.94
2019-02-03T15:23:16.063Z,101398.44
2019-02-03T15:25:45.658Z,101396.08
2019-02-03T15:28:16.811Z,101397.50
2019-02-03T15:30:47.190Z,101399.06
2019-02-03T15:33:16.679Z,101399.41
2019-02-03T15:35:46.587Z,101391.45
2019-02-03T15:38:15.776Z,101396.42
2019-02-03T15:40:45.196Z,101399.77
2019-02-03T15:43:25.207Z,101390.16
2019-02-03T15:45:45.667Z,101399.19
2019-02-03T15:48:16.077Z,101405.92
2019-02-03T15:50:45.638Z,101405.41
2019-02-03T15:53:15.222Z,101405.64
2019-02-03T15:55:44.738Z,101417.47
2019-02-03T15:58:15.334Z,101420.75
2019-02-03T16:00:48.059Z,101418.93
2019-02-03T16:03:17.682Z,101424.66
2019-02-03T16:05:47.156Z,101431.02
2019-02-03T16:08:16.666Z,101422.48
2019-02-03T16:10:45.862Z,101428.07
2019-02-03T16:13:15.160Z,101428.15
2019-02-03T16:15:44.563Z,101429.18
2019-02-03T16:18:13.730Z,101435.70
2019-02-03T16:20:43.493Z,101438.88
2019-02-03T16:23:13.206Z,101443.79
2019-02-03T16:25:42.348Z,101443.91
2019-02-03T16:28:11.623Z,101451.77
2019-02-03T16:30:41.298Z,101451.47
2019-02-03T16:33:11.289Z,101463.13
2019-02-03T16:35:40.924Z,101463.13
2019-02-03T16:38:22.602Z,101463.45
2019-02-03T16:40:42.908Z,101469.44
2019-02-03T16:43:12.112Z,101473.89
2019-02-03T16:45:42.854Z,101484.07
2019-02-03T16:48:12.613Z,101477.16
2019-02-03T16:50:42.573Z,101483.48
2019-02-03T16:53:11.906Z,101488.11
2019-02-03T16:55:41.381Z,101486.25
2019-02-03T16:58:11.043Z,101488.64
2019-02-03T17:00:40.594Z,101486.50
2019-02-03T17:03:09.804Z,101487.55
2019-02-03T17:05:39.651Z,101486.83
2019-02-03T17:08:08.872Z,101485.91
2019-02-03T17:10:38.217Z,101480.20
2019-02-03T17:13:07.605Z,101483.02
2019-02-03T17:15:39.655Z,101484.53
2019-02-03T17:18:10.287Z,101483.09
2019-02-03T17:20:40.017Z,101483.95
2019-02-03T17:23:09.290Z,101476.16
2019-02-03T17:25:47.239Z,101489.33
2019-02-03T17:28:17.130Z,101492.80
2019-02-03T17:30:46.530Z,101495.97
2019-02-03T17:33:16.169Z,101494.16
2019-02-03T17:35:53.920Z,101489.20
2019-02-03T17:38:16.624Z,101491.56
2019-02-03T17:40:45.949Z,101498.86
2019-02-03T17:43:15.641Z,101506.59
2019-02-03T17:45:45.158Z,101519.19
2019-02-03T17:48:14.849Z,101523.27
2019-02-03T17:50:44.157Z,101523.73
2019-02-03T17:53:13.380Z,101532.42
2019-02-03T17:55:43.253Z,101534.11
2019-02-03T17:58:12.425Z,101544.27
2019-02-03T18:01:12.800Z,101545.77
2019-02-03T18:03:42.443Z,101549.11
2019-02-03T18:06:11.698Z,101552.86
2019-02-03T18:08:40.899Z,101552.33
2019-02-03T18:11:10.049Z,101549.77
2019-02-03T18:13:40.003Z,101556.36
2019-02-03T18:16:10.362Z,101558.22
2019-02-03T18:18:40.241Z,101561.53
2019-02-03T18:21:09.751Z,101558.60
2019-02-03T18:23:38.966Z,101560.45
2019-02-03T18:26:08.161Z,101562.98
2019-02-03T18:28:37.440Z,101566.22
2019-02-03T18:31:06.976Z,101565.85
2019-02-03T18:33:36.282Z,101565.97
2019-02-03T18:36:05.647Z,101568.02
2019-02-03T18:38:34.793Z,101577.58
2019-02-03T18:41:04.859Z,101575.91
2019-02-03T18:43:34.502Z,101583.80
2019-02-03T18:46:04.361Z,101588.26
2019-02-03T18:48:33.716Z,101583.91
2019-02-03T18:51:03.229Z,101587.06
2019-02-03T18:53:32.756Z,101588.55
2019-02-03T18:56:01.910Z,101588.17
2019-02-03T18:58:31.897Z,101591.31
2019-02-03T19:01:01.158Z,101597.15
2019-02-03T19:03:30.457Z,101600.49
2019-02-03T19:05:59.939Z,101605.06
2019-02-03T19:08:29.907Z,101606.16
2019-02-03T19:10:59.397Z,101606.52
2019-02-03T19:13:28.809Z,101613.84
2019-02-03T19:15:57.969Z,101608.76
2019-02-03T19:18:27.441Z,101611.71
2019-02-03T19:20:56.726Z,101615.05
2019-02-03T19:23:26.273Z,101627.35
2019-02-03T19:25:55.517Z,101628.94
2019-02-03T19:28:25.433Z,101634.58
2019-02-03T19:30:54.987Z,101631.06
2019-02-03T19:33:24.404Z,101629.94
2019-02-03T19:35:54.333Z,101628.45
2019-02-03T19:38:23.535Z,101635.02
2019-02-03T19:40:54.040Z,101632.98
2019-02-03T19:43:25.119Z,101634.23
2019-02-03T19:45:55.737Z,101641.52
2019-02-03T19:48:25.242Z,101639.66
2019-02-03T19:50:54.465Z,101637.73
2019-02-03T19:53:24.568Z,101641.25
2019-02-03T19:55:53.709Z,101641.36
2019-02-03T19:58:23.428Z,101645.88
2019-02-03T20:00:52.942Z,101648.91
2019-02-03T20:03:22.484Z,101655.73
2019-02-03T20:05:52.094Z,101661.26
2019-02-03T20:08:21.629Z,101656.62
2019-02-03T20:10:51.411Z,101654.95
2019-02-03T20:13:20.765Z,101661.80
2019-02-03T20:15:51.020Z,101668.61
2019-02-03T20:18:22.441Z,101665.59
2019-02-03T20:20:51.537Z,101670.66
2019-02-03T20:23:20.997Z,101665.48
2019-02-03T20:25:50.613Z,101667.50
2019-02-03T20:28:19.878Z,101662.22
2019-02-03T20:30:49.488Z,101660.69
2019-02-03T20:33:18.688Z,101663.94
2019-02-03T20:35:48.975Z,101665.23
2019-02-03T20:38:18.542Z,101663.55
2019-02-03T20:40:47.698Z,101672.46
2019-02-03T20:43:16.872Z,101664.91
2019-02-03T20:45:49.424Z,101673.07
2019-02-03T20:48:17.104Z,101672.41
2019-02-03T20:50:46.592Z,101678.44
2019-02-03T20:53:15.749Z,101678.37
2019-02-03T20:55:45.297Z,101677.68
2019-02-03T20:58:14.815Z,101668.67
2019-02-03T21:00:44.449Z,101677.83
2019-02-03T21:03:14.165Z,101670.81
2019-02-03T21:05:43.710Z,101670.54
2019-02-03T21:08:12.894Z,101667.46
2019-02-03T21:10:43.093Z,101673.47
2019-02-03T21:13:12.334Z,101675.52
2019-02-03T21:15:41.479Z,101679.66
2019-02-03T21:18:11.365Z,101678.02
2019-02-03T21:20:40.596Z,101673.87
2019-02-03T21:23:09.832Z,101683.11
2019-02-03T21:25:39.041Z,101687.30
2019-02-03T21:28:08.402Z,101680.73
2019-02-03T21:30:38.799Z,101675.56
2019-02-03T21:33:08.071Z,101684.22
2019-02-03T21:35:37.319Z,101693.52
2019-02-03T21:38:08.120Z,101698.47
2019-02-03T21:40:37.404Z,101700.70
2019-02-03T21:43:06.796Z,101697.84
2019-02-03T21:45:44.242Z,101705.56
2019-02-03T21:48:08.458Z,101699.48
2019-02-03T21:50:38.037Z,101702.97
2019-02-03T21:53:07.176Z,101705.03
2019-02-03T21:55:37.085Z,101710.03
2019-02-03T21:58:06.523Z,101700.52
2019-02-03T22:00:36.535Z,101703.64
2019-02-03T22:03:05.786Z,101698.37
2019-02-03T22:05:35.362Z,101695.15
2019-02-03T22:08:04.913Z,101700.91
2019-02-03T22:10:36.085Z,101702.47
2019-02-03T22:13:05.730Z,101701.63
2019-02-03T22:15:35.253Z,101699.43
2019-02-03T22:18:04.589Z,101703.31
2019-02-03T22:20:33.769Z,101693.85
2019-02-03T22:23:02.940Z,101695.45
2019-02-03T22:25:34.072Z,101695.94
2019-02-03T22:28:03.609Z,101696.06
2019-02-03T22:30:38.403Z,101696.96
2019-02-03T22:33:08.350Z,101702.36
2019-02-03T22:35:38.146Z,101697.27
2019-02-03T22:38:08.562Z,101703.56
2019-02-03T22:40:38.074Z,101704.05
2019-02-03T22:43:07.261Z,101705.30
2019-02-03T22:45:36.713Z,101695.16
2019-02-03T22:48:07.512Z,101689.72
2019-02-03T22:50:36.982Z,101689.81
2019-02-03T22:53:06.466Z,101683.16
2019-02-03T22:55:35.718Z,101692.31
2019-02-03T22:58:05.236Z,101687.97
2019-02-03T23:00:58.712Z,101683.33
2019-02-03T23:03:32.224Z,101683.45
2019-02-03T23:06:01.417Z,101687.23
2019-02-03T23:08:30.900Z,101687.00
2019-02-03T23:11:00.053Z,101686.27
2019-02-03T23:13:30.155Z,101684.95
2019-02-03T23:15:59.637Z,101686.25
2019-02-03T23:18:30.078Z,101679.86
2019-02-03T23:20:59.236Z,101677.64
2019-02-03T23:23:28.479Z,101676.44
2019-02-03T23:25:57.994Z,101680.97
2019-02-03T23:28:27.649Z,101674.48
2019-02-03T23:30:56.821Z,101675.52
2019-02-03T23:33:26.384Z,101673.28
2019-02-03T23:35:55.837Z,101674.58
2019-02-03T23:38:24.993Z,101674.46
2019-02-03T23:40:54.222Z,101671.70
2019-02-03T23:43:23.801Z,101682.28
2019-02-03T23:45:53.581Z,101674.58
2019-02-03T23:48:23.109Z,101680.31
2019-02-03T23:50:52.350Z,101681.13
2019-02-03T23:53:21.668Z,101681.67
2019-02-03T23:55:51.523Z,101691.65
2019-02-03T23:58:20.664Z,101686.31
